| time (UTC) | temp C | wind direction | speed KPH | gust KPH | rain 1hr cm | rain 24hr cm | rain mn cm | humidity % | barometer mb |
| 20260906113034 | -17 | 0.0 | 0.0 | 0.00 | 1.57 | 0.00 | 1011.1 | ||
| 20260906111538 | -17 | 0.0 | 0.0 | 0.00 | 1.57 | 0.00 | 1011.3 | ||
| 20260906110035 | -17 | 0.0 | 0.0 | 0.00 | 1.57 | 0.00 | 1011.2 | ||
| 20260906104538 | -17 | 0.0 | 0.0 | 0.00 | 1.57 | 0.00 | 1011.0 | ||
| 20260906103035 | -17 | 0.0 | 0.0 | 0.00 | 1.57 | 0.00 | 1010.9 | ||
| 20260906101533 | -17 | 0.0 | 0.0 | 0.00 | 1.57 | 0.00 | 1010.9 | ||
| 20260906100033 | -17 | 0.0 | 0.0 | 0.00 | 1.57 | 0.00 | 1010.7 | ||
| 20260906094534 | -17 | 0.0 | 0.0 | 0.00 | 1.57 | 0.00 | 1010.6 | ||
| 20260906093032 | -17 | 0.0 | 0.0 | 0.00 | 1.57 | 0.00 | 1010.3 | ||
| 20260906091535 | -17 | 0.0 | 0.0 | 0.00 | 1.57 | 0.00 | 1010.2 | ||
| 20260906090032 | -17 | 0.0 | 0.0 | 0.00 | 1.57 | 0.00 | 1010.3 | ||
| 20260906084534 | -17 | 0.0 | 0.0 | 0.00 | 1.57 | 0.00 | 1010.2 | ||
| 20260906083036 | -17 | 0.0 | 0.0 | 0.00 | 1.57 | 0.00 | 97 | 1010.4 | |
| 20260906081513 | 21 | 17 | 0.0 | 0.0 | 0.00 | 1.57 | 0.00 | 97 | 1010.6 |
| 20260906080025 | 21 | 17 | 0.0 | 0.0 | 0.00 | 1.57 | 0.00 | 97 | 1010.6 |
| 20260906074529 | 21 | 17 | 0.0 | 0.0 | 0.00 | 1.57 | 0.00 | 97 | 1010.7 |
| 20260906073033 | 21 | 17 | 0.0 | 0.0 | 0.00 | 1.57 | 0.00 | 97 | 1010.9 |
| 20260906071512 | 21 | 17 | 0.0 | 0.0 | 0.00 | 1.57 | 0.00 | 96 | 1010.7 |
| 20260906070016 | 21 | 17 | 0.0 | 0.0 | 0.00 | 1.57 | 0.00 | 96 | 1011.1 |
| 20260906064523 | 21 | 17 | 0.0 | 0.0 | 0.00 | 1.57 | 0.00 | 96 | 1011.2 |
| 20260906063028 | 21 | 17 | 0.0 | 0.0 | 0.00 | 1.57 | 0.00 | 96 | 1011.0 |
| 20260906061534 | 21 | 17 | 0.0 | 0.0 | 0.00 | 1.57 | 0.00 | 96 | 1011.1 |
| 20260906060015 | 21 | 17 | 0.0 | 0.0 | 0.00 | 1.57 | 0.00 | 96 | 1011.2 |
| 20260906054520 | 21 | 17 | 0.0 | 0.0 | 0.00 | 1.57 | 0.00 | 96 | 1011.0 |
| 20260906053028 | 22 | 17 | 0.0 | 3.2 | 0.00 | 1.57 | 0.00 | 95 | 1011.1 |
| 20260906051532 | 22 | 17 | 0.0 | 1.6 | 0.00 | 1.57 | 0.00 | 95 | 1011.2 |
| 20260906050030 | 22 | 17 | 0.0 | 3.2 | 0.00 | 1.57 | 0.00 | 96 | 1011.4 |
| 20260906044523 | 22 | 17 | 0.0 | 3.2 | 0.00 | 1.57 | 0.00 | 96 | 1011.5 |
| 20260906043024 | 22 | 17 | 0.0 | 3.2 | 0.00 | 1.57 | 0.00 | 95 | 1011.5 |
| 20260906041528 | 22 | 17 | 0.0 | 0.0 | 0.00 | 1.57 | 0.00 | 95 | 1011.7 |
| 20260906040035 | 22 | 17 | 0.0 | 3.2 | 0.00 | 1.57 | 0.00 | 96 | 1011.8 |
| 20260906034520 | 22 | 17 | 0.0 | 4.8 | 0.00 | 1.57 | 1.57 | 96 | 1012.0 |
| 20260906033024 | 22 | 9 | 1.6 | 6.4 | 0.00 | 1.57 | 1.57 | 96 | 1011.9 |
| 20260906031526 | 22 | 282 | 1.6 | 3.2 | 0.00 | 1.57 | 1.57 | 96 | 1011.9 |
| 20260906030028 | 22 | 11 | 0.0 | 3.2 | 0.00 | 1.57 | 1.57 | 95 | 1012.0 |
| 20260906024530 | 22 | 11 | 0.0 | 4.8 | 0.00 | 1.57 | 1.57 | 95 | 1011.9 |
| 20260906023022 | 22 | 336 | 0.0 | 6.4 | 0.00 | 1.57 | 1.57 | 95 | 1011.5 |
| 20260906021504 | 22 | 243 | 1.6 | 6.4 | 0.00 | 1.57 | 1.57 | 95 | 1011.1 |
| 20260906020005 | 23 | 119 | 1.6 | 4.8 | 0.00 | 1.57 | 1.57 | 95 | 1010.8 |
| 20260906014512 | 22 | 100 | 3.2 | 16.1 | 0.00 | 1.57 | 1.57 | 94 | 1011.2 |
| 20260906013026 | 22 | 328 | 3.2 | 4.8 | 0.03 | 1.57 | 1.57 | 94 | 1010.3 |
| 20260906011523 | 22 | 103 | 1.6 | 11.3 | 0.91 | 1.57 | 1.57 | 94 | 1008.9 |
| 20260906010006 | 22 | 74 | 0.0 | 3.2 | 1.57 | 1.57 | 1.57 | 93 | 1009.4 |
| 20260906004510 | 22 | 165 | 1.6 | 9.7 | 1.57 | 1.57 | 1.57 | 91 | 1010.2 |
| 20260906003012 | 23 | 252 | 4.8 | 20.9 | 1.55 | 1.55 | 1.55 | 87 | 1011.5 |
| 20260906001519 | 25 | 250 | 8.0 | 27.4 | 0.66 | 0.66 | 0.66 | 78 | 1012.5 |
| 20260906000035 | 29 | 5 | 12.9 | 19.3 | 0.00 | 0.00 | 0.00 | 67 | 1011.7 |
| 20260905234504 | 30 | 228 | 0.0 | 3.2 | 0.00 | 0.00 | 0.00 | 81 | 1011.3 |
| 20260905233016 | 30 | 225 | 0.0 | 0.0 | 0.00 | 0.00 | 0.00 | 81 | 1010.9 |
| 20260905231518 | 30 | 208 | 0.0 | 1.6 | 0.00 | 0.00 | 0.00 | 78 | 1011.1 |
| 20260905230024 | 31 | 110 | 1.6 | 4.8 | 0.00 | 0.00 | 0.00 | 75 | 1010.9 |
| 20260905224527 | 32 | 220 | 3.2 | 11.3 | 0.00 | 0.00 | 0.00 | 68 | 1010.6 |
| 20260905223034 | 33 | 182 | 3.2 | 8.0 | 0.00 | 0.00 | 0.00 | 63 | 1010.6 |
| 20260905221522 | 33 | 200 | 4.8 | 8.0 | 0.00 | 0.00 | 0.00 | 64 | 1010.4 |
| 20260905220021 | 32 | 167 | 1.6 | 14.5 | 0.00 | 0.00 | 0.00 | 64 | 1010.2 |
| 20260905214531 | 33 | 146 | 3.2 | 11.3 | 0.00 | 0.00 | 0.00 | 63 | 1010.3 |
| 20260905213031 | 34 | 152 | 4.8 | 9.7 | 0.00 | 0.00 | 0.00 | 58 | 1010.0 |
| 20260905211519 | 34 | 352 | 1.6 | 4.8 | 0.00 | 0.00 | 0.00 | 55 | 1010.1 |
| 20260905210020 | 34 | 139 | 0.0 | 3.2 | 0.00 | 0.00 | 0.00 | 56 | 1010.0 |
| 20260905204523 | 34 | 360 | 3.2 | 9.7 | 0.00 | 0.00 | 0.00 | 59 | 1009.9 |
| 20260905203006 | 34 | 227 | 3.2 | 8.0 | 0.00 | 0.00 | 0.00 | 57 | 1009.9 |
| 20260905201510 | 34 | 78 | 0.0 | 11.3 | 0.00 | 0.00 | 0.00 | 57 | 1009.9 |
| 20260905200016 | 34 | 86 | 4.8 | 8.0 | 0.00 | 0.00 | 0.00 | 57 | 1010.0 |
| 20260905194522 | 34 | 263 | 1.6 | 8.0 | 0.00 | 0.00 | 0.00 | 59 | 1010.1 |
| 20260905193027 | 35 | 202 | 3.2 | 8.0 | 0.00 | 0.00 | 0.00 | 58 | 1010.3 |
| 20260905191508 | 34 | 131 | 0.0 | 8.0 | 0.00 | 0.00 | 0.00 | 60 | 1010.7 |
| 20260905190012 | 33 | 218 | 3.2 | 11.3 | 0.00 | 0.00 | 0.00 | 62 | 1011.1 |
| 20260905184521 | 33 | 45 | 1.6 | 14.5 | 0.00 | 0.00 | 0.00 | 60 | 1011.3 |
| 20260905183024 | 33 | 302 | 3.2 | 9.7 | 0.00 | 0.00 | 0.00 | 62 | 1011.5 |
| 20260905181527 | 33 | 352 | 3.2 | 11.3 | 0.00 | 0.00 | 0.00 | 62 | 1011.7 |
| 20260905180012 | 33 | 266 | 4.8 | 11.3 | 0.00 | 0.00 | 0.00 | 63 | 1011.8 |
| 20260905174515 | 33 | 196 | 1.6 | 16.1 | 0.00 | 0.00 | 0.00 | 66 | 1012.1 |
| 20260905173023 | 32 | 275 | 1.6 | 12.9 | 0.00 | 0.00 | 0.00 | 68 | 1012.4 |
| 20260905171534 | 31 | 281 | 6.4 | 9.7 | 0.00 | 0.00 | 0.00 | 69 | 1012.6 |
| 20260905170030 | 32 | 101 | 0.0 | 8.0 | 0.00 | 0.00 | 0.00 | 67 | 1013.0 |
| 20260905164532 | 32 | 282 | 0.0 | 6.4 | 0.00 | 0.00 | 0.00 | 71 | 1013.2 |
| 20260905163016 | 31 | 203 | 6.4 | 12.9 | 0.00 | 0.00 | 0.00 | 72 | 1013.4 |
| 20260905161524 | 31 | 287 | 4.8 | 11.3 | 0.00 | 0.00 | 0.00 | 75 | 1013.7 |
| 20260905160029 | 31 | 261 | 1.6 | 11.3 | 0.00 | 0.00 | 0.00 | 75 | 1013.9 |
| 20260905154537 | 30 | 249 | 3.2 | 6.4 | 0.00 | 0.00 | 0.00 | 75 | 1014.1 |
| 20260905153030 | 30 | 223 | 3.2 | 12.9 | 0.00 | 0.00 | 0.00 | 77 | 1014.3 |
| 20260905151524 | 30 | 269 | 3.2 | 6.4 | 0.00 | 0.00 | 0.00 | 79 | 1014.2 |
| 20260905150035 | 29 | 264 | 3.2 | 12.9 | 0.00 | 0.00 | 0.00 | 81 | 1014.3 |
| 20260905144533 | 29 | 335 | 6.4 | 12.9 | 0.00 | 0.00 | 0.00 | 81 | 1014.4 |
| 20260905143030 | 28 | 254 | 1.6 | 9.7 | 0.00 | 0.00 | 0.00 | 82 | 1014.3 |
| 20260905141520 | 28 | 52 | 3.2 | 12.9 | 0.00 | 0.00 | 0.00 | 84 | 1014.3 |
| 20260905140028 | 28 | 13 | 1.6 | 9.7 | 0.00 | 0.00 | 0.00 | 86 | 1014.4 |
| 20260905134506 | 27 | 291 | 3.2 | 12.9 | 0.00 | 0.00 | 0.00 | 88 | 1014.4 |
| 20260905133011 | 26 | 264 | 4.8 | 11.3 | 0.00 | 0.00 | 0.00 | 91 | 1014.5 |
| 20260905131517 | 26 | 238 | 3.2 | 6.4 | 0.00 | 0.00 | 0.00 | 93 | 1014.6 |
| 20260905130023 | 25 | 304 | 3.2 | 11.3 | 0.00 | 0.00 | 0.00 | 96 | 1014.7 |
| 20260905124530 | 25 | 281 | 3.2 | 6.4 | 0.00 | 0.00 | 0.00 | 97 | 1014.4 |
| 20260905123032 | 24 | 266 | 1.6 | 4.8 | 0.00 | 0.00 | 0.00 | 97 | 1014.5 |
| 20260905121517 | 23 | 78 | 0.0 | 0.0 | 0.00 | 0.00 | 0.00 | 97 | 1014.5 |
| 20260905120026 | 23 | 78 | 0.0 | 0.0 | 0.00 | 0.00 | 0.00 | 97 | 1014.3 |
| 20260905114527 | 23 | 182 | 0.0 | 0.0 | 0.00 | 0.00 | 0.00 | 97 | 1014.4 |